sensor_id;sensor_type;location;lat;lon;timestamp;P1;durP1;ratioP1;P2;durP2;ratioP2
10947;SDS011;5526;42.070;24.752;2022-07-09T00:01:40;4.40;;;4.10;;
10947;SDS011;5526;42.070;24.752;2022-07-09T00:04:07;4.05;;;3.75;;
10947;SDS011;5526;42.070;24.752;2022-07-09T00:06:35;4.32;;;3.92;;
10947;SDS011;5526;42.070;24.752;2022-07-09T00:09:02;4.50;;;4.20;;
10947;SDS011;5526;42.070;24.752;2022-07-09T00:11:29;4.45;;;4.05;;
10947;SDS011;5526;42.070;24.752;2022-07-09T00:13:56;4.18;;;3.90;;
10947;SDS011;5526;42.070;24.752;2022-07-09T00:16:23;3.95;;;3.60;;
10947;SDS011;5526;42.070;24.752;2022-07-09T00:18:50;4.18;;;3.88;;
10947;SDS011;5526;42.070;24.752;2022-07-09T00:21:17;4.30;;;4.00;;
10947;SDS011;5526;42.070;24.752;2022-07-09T00:23:46;3.70;;;3.50;;
10947;SDS011;5526;42.070;24.752;2022-07-09T00:26:13;3.83;;;3.53;;
10947;SDS011;5526;42.070;24.752;2022-07-09T00:28:41;3.60;;;3.40;;
10947;SDS011;5526;42.070;24.752;2022-07-09T00:31:08;3.17;;;2.97;;
10947;SDS011;5526;42.070;24.752;2022-07-09T00:33:35;3.45;;;3.25;;
10947;SDS011;5526;42.070;24.752;2022-07-09T00:36:02;3.47;;;3.28;;
10947;SDS011;5526;42.070;24.752;2022-07-09T00:38:29;4.20;;;3.20;;
10947;SDS011;5526;42.070;24.752;2022-07-09T00:40:57;3.25;;;3.05;;
10947;SDS011;5526;42.070;24.752;2022-07-09T00:43:25;3.50;;;3.20;;
10947;SDS011;5526;42.070;24.752;2022-07-09T00:45:52;3.60;;;3.40;;
10947;SDS011;5526;42.070;24.752;2022-07-09T00:48:19;3.95;;;3.55;;
10947;SDS011;5526;42.070;24.752;2022-07-09T00:50:46;3.80;;;3.50;;
10947;SDS011;5526;42.070;24.752;2022-07-09T00:53:15;3.50;;;3.30;;
10947;SDS011;5526;42.070;24.752;2022-07-09T00:55:44;3.50;;;3.20;;
10947;SDS011;5526;42.070;24.752;2022-07-09T00:58:14;3.50;;;3.30;;
10947;SDS011;5526;42.070;24.752;2022-07-09T01:00:44;3.13;;;2.92;;
10947;SDS011;5526;42.070;24.752;2022-07-09T01:03:11;2.95;;;2.75;;
10947;SDS011;5526;42.070;24.752;2022-07-09T01:05:38;3.13;;;2.92;;
10947;SDS011;5526;42.070;24.752;2022-07-09T01:08:06;3.20;;;2.88;;
10947;SDS011;5526;42.070;24.752;2022-07-09T01:10:34;3.20;;;2.90;;
10947;SDS011;5526;42.070;24.752;2022-07-09T01:13:02;3.35;;;3.08;;
10947;SDS011;5526;42.070;24.752;2022-07-09T01:15:31;3.10;;;2.90;;
10947;SDS011;5526;42.070;24.752;2022-07-09T01:17:58;3.22;;;3.03;;
10947;SDS011;5526;42.070;24.752;2022-07-09T01:20:27;3.17;;;2.97;;
10947;SDS011;5526;42.070;24.752;2022-07-09T01:22:55;3.45;;;3.25;;
10947;SDS011;5526;42.070;24.752;2022-07-09T01:25:27;3.72;;;3.53;;
10947;SDS011;5526;42.070;24.752;2022-07-09T01:28:00;3.13;;;2.95;;
10947;SDS011;5526;42.070;24.752;2022-07-09T01:30:27;3.35;;;3.05;;
10947;SDS011;5526;42.070;24.752;2022-07-09T01:32:54;8.73;;;8.00;;
10947;SDS011;5526;42.070;24.752;2022-07-09T01:35:22;4.35;;;4.10;;
10947;SDS011;5526;42.070;24.752;2022-07-09T01:37:50;3.78;;;3.47;;
10947;SDS011;5526;42.070;24.752;2022-07-09T01:40:18;3.58;;;3.38;;
10947;SDS011;5526;42.070;24.752;2022-07-09T01:42:45;3.70;;;3.50;;
10947;SDS011;5526;42.070;24.752;2022-07-09T01:45:13;3.22;;;3.03;;
10947;SDS011;5526;42.070;24.752;2022-07-09T01:47:40;3.92;;;3.58;;
10947;SDS011;5526;42.070;24.752;2022-07-09T01:50:08;3.45;;;3.25;;
10947;SDS011;5526;42.070;24.752;2022-07-09T01:52:36;3.03;;;2.83;;
10947;SDS011;5526;42.070;24.752;2022-07-09T01:55:05;3.40;;;3.20;;
10947;SDS011;5526;42.070;24.752;2022-07-09T01:57:32;3.58;;;3.38;;
10947;SDS011;5526;42.070;24.752;2022-07-09T01:59:59;15.60;;;13.95;;
10947;SDS011;5526;42.070;24.752;2022-07-09T02:02:26;4.93;;;4.63;;
10947;SDS011;5526;42.070;24.752;2022-07-09T02:04:53;3.50;;;3.30;;
10947;SDS011;5526;42.070;24.752;2022-07-09T02:07:21;4.43;;;4.13;;
10947;SDS011;5526;42.070;24.752;2022-07-09T02:09:48;4.13;;;3.83;;
10947;SDS011;5526;42.070;24.752;2022-07-09T02:12:17;3.40;;;3.20;;
10947;SDS011;5526;42.070;24.752;2022-07-09T02:14:44;3.60;;;3.30;;
10947;SDS011;5526;42.070;24.752;2022-07-09T02:17:11;4.30;;;3.90;;
10947;SDS011;5526;42.070;24.752;2022-07-09T02:19:38;4.03;;;3.75;;
10947;SDS011;5526;42.070;24.752;2022-07-09T02:22:05;3.78;;;3.58;;
10947;SDS011;5526;42.070;24.752;2022-07-09T02:24:32;4.50;;;4.20;;
10947;SDS011;5526;42.070;24.752;2022-07-09T02:26:59;3.78;;;3.50;;
10947;SDS011;5526;42.070;24.752;2022-07-09T02:29:28;3.58;;;3.38;;
10947;SDS011;5526;42.070;24.752;2022-07-09T02:31:55;3.90;;;3.60;;
10947;SDS011;5526;42.070;24.752;2022-07-09T02:34:22;3.60;;;3.40;;
10947;SDS011;5526;42.070;24.752;2022-07-09T02:36:49;3.40;;;3.20;;
10947;SDS011;5526;42.070;24.752;2022-07-09T02:39:16;3.80;;;3.60;;
10947;SDS011;5526;42.070;24.752;2022-07-09T02:41:46;3.55;;;3.35;;
10947;SDS011;5526;42.070;24.752;2022-07-09T02:44:13;3.40;;;3.20;;
10947;SDS011;5526;42.070;24.752;2022-07-09T02:46:41;3.03;;;2.78;;
10947;SDS011;5526;42.070;24.752;2022-07-09T02:49:08;3.20;;;3.00;;
10947;SDS011;5526;42.070;24.752;2022-07-09T02:51:36;3.35;;;3.10;;
10947;SDS011;5526;42.070;24.752;2022-07-09T02:54:03;3.45;;;3.22;;
10947;SDS011;5526;42.070;24.752;2022-07-09T02:56:31;3.25;;;3.05;;
10947;SDS011;5526;42.070;24.752;2022-07-09T02:58:58;3.08;;;2.88;;
10947;SDS011;5526;42.070;24.752;2022-07-09T03:01:25;3.13;;;2.83;;
10947;SDS011;5526;42.070;24.752;2022-07-09T03:03:54;4.47;;;4.13;;
10947;SDS011;5526;42.070;24.752;2022-07-09T03:06:21;12.57;;;11.27;;
10947;SDS011;5526;42.070;24.752;2022-07-09T03:08:48;18.42;;;16.23;;
10947;SDS011;5526;42.070;24.752;2022-07-09T03:11:15;17.13;;;12.57;;
10947;SDS011;5526;42.070;24.752;2022-07-09T03:13:42;6.60;;;6.00;;
10947;SDS011;5526;42.070;24.752;2022-07-09T03:16:09;4.82;;;3.85;;
10947;SDS011;5526;42.070;24.752;2022-07-09T03:18:36;4.18;;;3.88;;
10947;SDS011;5526;42.070;24.752;2022-07-09T03:21:05;3.53;;;3.22;;
10947;SDS011;5526;42.070;24.752;2022-07-09T03:23:34;2.78;;;2.45;;
10947;SDS011;5526;42.070;24.752;2022-07-09T03:26:01;2.50;;;2.40;;
10947;SDS011;5526;42.070;24.752;2022-07-09T03:28:29;2.63;;;2.42;;
10947;SDS011;5526;42.070;24.752;2022-07-09T03:30:56;2.85;;;2.38;;
10947;SDS011;5526;42.070;24.752;2022-07-09T03:33:23;2.38;;;2.28;;
10947;SDS011;5526;42.070;24.752;2022-07-09T03:35:50;2.40;;;2.30;;
10947;SDS011;5526;42.070;24.752;2022-07-09T03:38:20;3.00;;;2.55;;
10947;SDS011;5526;42.070;24.752;2022-07-09T03:40:47;3.90;;;3.47;;
10947;SDS011;5526;42.070;24.752;2022-07-09T03:43:14;3.00;;;2.80;;
10947;SDS011;5526;42.070;24.752;2022-07-09T03:45:41;4.28;;;3.97;;
10947;SDS011;5526;42.070;24.752;2022-07-09T03:48:09;5.00;;;4.70;;
10947;SDS011;5526;42.070;24.752;2022-07-09T03:50:36;7.10;;;6.50;;
10947;SDS011;5526;42.070;24.752;2022-07-09T03:53:03;7.22;;;6.40;;
10947;SDS011;5526;42.070;24.752;2022-07-09T03:55:31;9.43;;;8.48;;
10947;SDS011;5526;42.070;24.752;2022-07-09T03:57:58;8.13;;;7.32;;
10947;SDS011;5526;42.070;24.752;2022-07-09T04:00:25;5.35;;;4.88;;
10947;SDS011;5526;42.070;24.752;2022-07-09T04:02:53;3.45;;;3.15;;
10947;SDS011;5526;42.070;24.752;2022-07-09T04:05:20;2.90;;;2.70;;
10947;SDS011;5526;42.070;24.752;2022-07-09T04:07:47;3.42;;;3.22;;
10947;SDS011;5526;42.070;24.752;2022-07-09T04:10:14;4.07;;;3.83;;
10947;SDS011;5526;42.070;24.752;2022-07-09T04:12:43;3.00;;;2.80;;
10947;SDS011;5526;42.070;24.752;2022-07-09T04:15:10;2.78;;;2.67;;
10947;SDS011;5526;42.070;24.752;2022-07-09T04:17:37;2.35;;;2.25;;
10947;SDS011;5526;42.070;24.752;2022-07-09T04:20:04;2.30;;;2.20;;
10947;SDS011;5526;42.070;24.752;2022-07-09T04:22:32;3.00;;;2.80;;
10947;SDS011;5526;42.070;24.752;2022-07-09T04:24:59;2.92;;;2.83;;
10947;SDS011;5526;42.070;24.752;2022-07-09T04:27:26;3.17;;;2.88;;
10947;SDS011;5526;42.070;24.752;2022-07-09T04:29:55;4.82;;;4.53;;
10947;SDS011;5526;42.070;24.752;2022-07-09T04:32:23;2.38;;;2.28;;
10947;SDS011;5526;42.070;24.752;2022-07-09T04:34:50;2.50;;;2.30;;
10947;SDS011;5526;42.070;24.752;2022-07-09T04:37:17;2.53;;;2.33;;
10947;SDS011;5526;42.070;24.752;2022-07-09T04:39:44;2.47;;;2.28;;
10947;SDS011;5526;42.070;24.752;2022-07-09T04:42:11;3.25;;;3.05;;
10947;SDS011;5526;42.070;24.752;2022-07-09T04:44:38;2.92;;;2.60;;
10947;SDS011;5526;42.070;24.752;2022-07-09T04:47:08;3.50;;;3.30;;
10947;SDS011;5526;42.070;24.752;2022-07-09T04:49:35;3.35;;;3.05;;
10947;SDS011;5526;42.070;24.752;2022-07-09T04:52:02;2.67;;;2.55;;
10947;SDS011;5526;42.070;24.752;2022-07-09T04:54:30;3.20;;;3.00;;
10947;SDS011;5526;42.070;24.752;2022-07-09T04:56:57;3.47;;;3.17;;
10947;SDS011;5526;42.070;24.752;2022-07-09T04:59:24;3.58;;;3.17;;
10947;SDS011;5526;42.070;24.752;2022-07-09T05:01:52;2.45;;;2.35;;
10947;SDS011;5526;42.070;24.752;2022-07-09T05:04:20;3.22;;;3.03;;
10947;SDS011;5526;42.070;24.752;2022-07-09T05:06:47;3.33;;;3.13;;
10947;SDS011;5526;42.070;24.752;2022-07-09T05:09:14;3.70;;;3.40;;
10947;SDS011;5526;42.070;24.752;2022-07-09T05:11:41;3.25;;;3.05;;
10947;SDS011;5526;42.070;24.752;2022-07-09T05:14:08;3.47;;;3.28;;
10947;SDS011;5526;42.070;24.752;2022-07-09T05:16:35;3.15;;;3.00;;
10947;SDS011;5526;42.070;24.752;2022-07-09T05:19:02;2.95;;;2.85;;
10947;SDS011;5526;42.070;24.752;2022-07-09T05:21:30;3.97;;;3.67;;
10947;SDS011;5526;42.070;24.752;2022-07-09T05:23:57;3.20;;;3.00;;
10947;SDS011;5526;42.070;24.752;2022-07-09T05:26:26;3.20;;;3.00;;
10947;SDS011;5526;42.070;24.752;2022-07-09T05:28:54;3.53;;;3.33;;
10947;SDS011;5526;42.070;24.752;2022-07-09T05:31:22;3.60;;;3.40;;
10947;SDS011;5526;42.070;24.752;2022-07-09T05:33:49;2.65;;;2.55;;
10947;SDS011;5526;42.070;24.752;2022-07-09T05:36:16;3.33;;;3.17;;
10947;SDS011;5526;42.070;24.752;2022-07-09T05:38:45;2.70;;;2.60;;
10947;SDS011;5526;42.070;24.752;2022-07-09T05:41:12;3.45;;;3.25;;
10947;SDS011;5526;42.070;24.752;2022-07-09T05:43:40;4.95;;;4.55;;
10947;SDS011;5526;42.070;24.752;2022-07-09T05:46:07;5.55;;;4.07;;
10947;SDS011;5526;42.070;24.752;2022-07-09T05:48:34;16.45;;;13.50;;
10947;SDS011;5526;42.070;24.752;2022-07-09T05:51:01;30.50;;;22.70;;
10947;SDS011;5526;42.070;24.752;2022-07-09T05:53:28;24.35;;;21.13;;
10947;SDS011;5526;42.070;24.752;2022-07-09T05:55:57;6.65;;;6.05;;
10947;SDS011;5526;42.070;24.752;2022-07-09T05:58:24;2.50;;;2.40;;
10947;SDS011;5526;42.070;24.752;2022-07-09T06:00:52;11.15;;;9.40;;
10947;SDS011;5526;42.070;24.752;2022-07-09T06:03:19;17.60;;;15.25;;
10947;SDS011;5526;42.070;24.752;2022-07-09T06:05:46;9.55;;;8.55;;
10947;SDS011;5526;42.070;24.752;2022-07-09T06:08:13;5.85;;;5.35;;
10947;SDS011;5526;42.070;24.752;2022-07-09T06:10:40;4.10;;;3.72;;
10947;SDS011;5526;42.070;24.752;2022-07-09T06:13:09;8.85;;;8.15;;
10947;SDS011;5526;42.070;24.752;2022-07-09T06:15:36;12.57;;;11.27;;
10947;SDS011;5526;42.070;24.752;2022-07-09T06:18:03;4.80;;;4.50;;
10947;SDS011;5526;42.070;24.752;2022-07-09T06:20:30;2.88;;;2.65;;
10947;SDS011;5526;42.070;24.752;2022-07-09T06:22:57;5.53;;;5.22;;
10947;SDS011;5526;42.070;24.752;2022-07-09T06:25:24;3.20;;;3.00;;
10947;SDS011;5526;42.070;24.752;2022-07-09T06:27:51;3.42;;;3.22;;
10947;SDS011;5526;42.070;24.752;2022-07-09T06:30:20;2.97;;;2.78;;
10947;SDS011;5526;42.070;24.752;2022-07-09T06:32:47;2.10;;;2.00;;
10947;SDS011;5526;42.070;24.752;2022-07-09T06:35:14;2.72;;;2.53;;
10947;SDS011;5526;42.070;24.752;2022-07-09T06:37:40;2.55;;;2.45;;
10947;SDS011;5526;42.070;24.752;2022-07-09T06:40:08;2.88;;;2.35;;
10947;SDS011;5526;42.070;24.752;2022-07-09T06:42:35;2.78;;;2.58;;
10947;SDS011;5526;42.070;24.752;2022-07-09T06:45:02;2.42;;;2.33;;
10947;SDS011;5526;42.070;24.752;2022-07-09T06:47:31;2.25;;;2.15;;
10947;SDS011;5526;42.070;24.752;2022-07-09T06:49:58;3.60;;;2.47;;
10947;SDS011;5526;42.070;24.752;2022-07-09T06:52:25;2.97;;;2.83;;
10947;SDS011;5526;42.070;24.752;2022-07-09T06:54:52;3.30;;;3.10;;
10947;SDS011;5526;42.070;24.752;2022-07-09T06:57:19;2.42;;;2.33;;
10947;SDS011;5526;42.070;24.752;2022-07-09T06:59:46;2.55;;;2.45;;
10947;SDS011;5526;42.070;24.752;2022-07-09T07:02:13;2.70;;;2.50;;
10947;SDS011;5526;42.070;24.752;2022-07-09T07:04:43;2.40;;;2.30;;
10947;SDS011;5526;42.070;24.752;2022-07-09T07:07:10;2.60;;;2.50;;
10947;SDS011;5526;42.070;24.752;2022-07-09T07:09:37;2.33;;;2.22;;
10947;SDS011;5526;42.070;24.752;2022-07-09T07:12:05;2.65;;;2.45;;
10947;SDS011;5526;42.070;24.752;2022-07-09T07:14:32;2.67;;;2.58;;
10947;SDS011;5526;42.070;24.752;2022-07-09T07:17:00;2.20;;;2.03;;
10947;SDS011;5526;42.070;24.752;2022-07-09T07:19:27;2.50;;;2.40;;
10947;SDS011;5526;42.070;24.752;2022-07-09T07:21:55;2.38;;;2.28;;
10947;SDS011;5526;42.070;24.752;2022-07-09T07:24:22;2.50;;;2.40;;
10947;SDS011;5526;42.070;24.752;2022-07-09T07:26:49;2.45;;;2.25;;
10947;SDS011;5526;42.070;24.752;2022-07-09T07:29:19;2.17;;;2.08;;
10947;SDS011;5526;42.070;24.752;2022-07-09T07:31:46;2.95;;;2.75;;
10947;SDS011;5526;42.070;24.752;2022-07-09T07:34:14;2.25;;;2.15;;
10947;SDS011;5526;42.070;24.752;2022-07-09T07:36:43;2.78;;;2.47;;
10947;SDS011;5526;42.070;24.752;2022-07-09T07:39:11;2.50;;;2.40;;
10947;SDS011;5526;42.070;24.752;2022-07-09T07:41:38;2.17;;;2.08;;
10947;SDS011;5526;42.070;24.752;2022-07-09T07:44:05;2.10;;;2.00;;
10947;SDS011;5526;42.070;24.752;2022-07-09T07:46:32;2.40;;;2.20;;
10947;SDS011;5526;42.070;24.752;2022-07-09T07:48:59;2.35;;;2.20;;
10947;SDS011;5526;42.070;24.752;2022-07-09T07:51:26;2.13;;;2.03;;
10947;SDS011;5526;42.070;24.752;2022-07-09T07:53:53;2.38;;;2.28;;
10947;SDS011;5526;42.070;24.752;2022-07-09T07:56:22;2.58;;;2.38;;
10947;SDS011;5526;42.070;24.752;2022-07-09T07:58:49;2.42;;;2.33;;
10947;SDS011;5526;42.070;24.752;2022-07-09T08:01:16;2.72;;;2.63;;
10947;SDS011;5526;42.070;24.752;2022-07-09T08:03:42;2.40;;;2.20;;
10947;SDS011;5526;42.070;24.752;2022-07-09T08:06:09;2.40;;;2.20;;
10947;SDS011;5526;42.070;24.752;2022-07-09T08:08:36;2.20;;;2.10;;
10947;SDS011;5526;42.070;24.752;2022-07-09T08:11:04;2.30;;;2.20;;
10947;SDS011;5526;42.070;24.752;2022-07-09T08:13:32;2.65;;;2.47;;
10947;SDS011;5526;42.070;24.752;2022-07-09T08:15:59;2.50;;;2.40;;
10947;SDS011;5526;42.070;24.752;2022-07-09T08:18:27;2.33;;;2.13;;
10947;SDS011;5526;42.070;24.752;2022-07-09T08:20:54;2.78;;;2.58;;
10947;SDS011;5526;42.070;24.752;2022-07-09T08:23:21;2.25;;;2.15;;
10947;SDS011;5526;42.070;24.752;2022-07-09T08:25:48;2.35;;;2.25;;
10947;SDS011;5526;42.070;24.752;2022-07-09T08:28:16;1.90;;;1.80;;
10947;SDS011;5526;42.070;24.752;2022-07-09T08:30:44;2.75;;;2.50;;
10947;SDS011;5526;42.070;24.752;2022-07-09T08:33:11;2.90;;;2.70;;
10947;SDS011;5526;42.070;24.752;2022-07-09T08:35:38;2.35;;;2.22;;
10947;SDS011;5526;42.070;24.752;2022-07-09T08:38:05;2.75;;;2.65;;
10947;SDS011;5526;42.070;24.752;2022-07-09T08:40:32;2.50;;;2.40;;
10947;SDS011;5526;42.070;24.752;2022-07-09T08:43:00;2.50;;;2.40;;
10947;SDS011;5526;42.070;24.752;2022-07-09T08:45:30;2.47;;;2.38;;
10947;SDS011;5526;42.070;24.752;2022-07-09T08:47:59;2.88;;;2.72;;
10947;SDS011;5526;42.070;24.752;2022-07-09T08:50:27;3.03;;;2.72;;
10947;SDS011;5526;42.070;24.752;2022-07-09T08:52:54;3.20;;;2.85;;
10947;SDS011;5526;42.070;24.752;2022-07-09T08:55:22;3.20;;;3.00;;
10947;SDS011;5526;42.070;24.752;2022-07-09T08:57:49;3.08;;;2.80;;
10947;SDS011;5526;42.070;24.752;2022-07-09T09:00:17;2.90;;;2.70;;
10947;SDS011;5526;42.070;24.752;2022-07-09T09:02:44;2.70;;;2.60;;
10947;SDS011;5526;42.070;24.752;2022-07-09T09:05:14;3.00;;;2.80;;
10947;SDS011;5526;42.070;24.752;2022-07-09T09:07:41;2.70;;;2.50;;
10947;SDS011;5526;42.070;24.752;2022-07-09T09:10:19;3.70;;;3.40;;
10947;SDS011;5526;42.070;24.752;2022-07-09T09:12:47;3.50;;;3.30;;
10947;SDS011;5526;42.070;24.752;2022-07-09T09:15:16;2.90;;;2.80;;
10947;SDS011;5526;42.070;24.752;2022-07-09T09:17:44;2.72;;;2.50;;
10947;SDS011;5526;42.070;24.752;2022-07-09T09:20:13;4.47;;;4.07;;
10947;SDS011;5526;42.070;24.752;2022-07-09T09:22:44;4.45;;;4.05;;
10947;SDS011;5526;42.070;24.752;2022-07-09T09:25:15;4.18;;;3.83;;
10947;SDS011;5526;42.070;24.752;2022-07-09T09:27:50;4.07;;;3.70;;
10947;SDS011;5526;42.070;24.752;2022-07-09T09:30:18;4.03;;;3.72;;
10947;SDS011;5526;42.070;24.752;2022-07-09T09:32:53;7.18;;;6.57;;
10947;SDS011;5526;42.070;24.752;2022-07-09T09:35:23;16.95;;;14.52;;
10947;SDS011;5526;42.070;24.752;2022-07-09T09:37:50;4.95;;;4.50;;
10947;SDS011;5526;42.070;24.752;2022-07-09T09:40:18;3.38;;;3.17;;
10947;SDS011;5526;42.070;24.752;2022-07-09T09:42:45;3.42;;;3.22;;
10947;SDS011;5526;42.070;24.752;2022-07-09T09:45:13;14.38;;;12.98;;
10947;SDS011;5526;42.070;24.752;2022-07-09T09:47:42;5.50;;;5.00;;
10947;SDS011;5526;42.070;24.752;2022-07-09T09:50:14;3.78;;;3.58;;
10947;SDS011;5526;42.070;24.752;2022-07-09T09:52:45;5.00;;;4.57;;
10947;SDS011;5526;42.070;24.752;2022-07-09T09:55:13;4.18;;;3.88;;
10947;SDS011;5526;42.070;24.752;2022-07-09T09:57:42;3.08;;;2.88;;
10947;SDS011;5526;42.070;24.752;2022-07-09T10:00:10;3.00;;;2.80;;
10947;SDS011;5526;42.070;24.752;2022-07-09T10:02:38;3.25;;;3.05;;
10947;SDS011;5526;42.070;24.752;2022-07-09T10:05:08;3.17;;;2.75;;
10947;SDS011;5526;42.070;24.752;2022-07-09T10:07:35;2.85;;;2.75;;
10947;SDS011;5526;42.070;24.752;2022-07-09T10:10:05;3.03;;;2.83;;
10947;SDS011;5526;42.070;24.752;2022-07-09T10:12:33;3.10;;;2.90;;
10947;SDS011;5526;42.070;24.752;2022-07-09T10:15:01;3.40;;;3.20;;
10947;SDS011;5526;42.070;24.752;2022-07-09T10:17:38;3.30;;;3.10;;
10947;SDS011;5526;42.070;24.752;2022-07-09T10:20:07;4.55;;;4.25;;
10947;SDS011;5526;42.070;24.752;2022-07-09T10:22:37;6.45;;;5.22;;
10947;SDS011;5526;42.070;24.752;2022-07-09T10:25:07;4.95;;;4.45;;
10947;SDS011;5526;42.070;24.752;2022-07-09T10:27:41;6.30;;;5.70;;
10947;SDS011;5526;42.070;24.752;2022-07-09T10:30:21;5.03;;;4.63;;
10947;SDS011;5526;42.070;24.752;2022-07-09T10:33:00;4.40;;;4.10;;
10947;SDS011;5526;42.070;24.752;2022-07-09T10:35:28;7.07;;;6.38;;
10947;SDS011;5526;42.070;24.752;2022-07-09T10:37:56;6.05;;;5.45;;
10947;SDS011;5526;42.070;24.752;2022-07-09T10:40:24;4.15;;;3.85;;
10947;SDS011;5526;42.070;24.752;2022-07-09T10:42:59;6.70;;;6.10;;
10947;SDS011;5526;42.070;24.752;2022-07-09T10:45:28;8.85;;;7.80;;
10947;SDS011;5526;42.070;24.752;2022-07-09T10:47:58;26.25;;;18.30;;
10947;SDS011;5526;42.070;24.752;2022-07-09T10:50:26;12.38;;;11.18;;
10947;SDS011;5526;42.070;24.752;2022-07-09T10:52:54;7.28;;;6.57;;
10947;SDS011;5526;42.070;24.752;2022-07-09T10:55:22;6.40;;;5.90;;
10947;SDS011;5526;42.070;24.752;2022-07-09T10:57:52;5.22;;;4.93;;
10947;SDS011;5526;42.070;24.752;2022-07-09T11:00:20;3.92;;;3.65;;
10947;SDS011;5526;42.070;24.752;2022-07-09T11:02:52;3.40;;;3.10;;
10947;SDS011;5526;42.070;24.752;2022-07-09T11:05:20;6.55;;;5.95;;
10947;SDS011;5526;42.070;24.752;2022-07-09T11:07:54;4.32;;;3.95;;
10947;SDS011;5526;42.070;24.752;2022-07-09T11:10:22;5.53;;;4.18;;
10947;SDS011;5526;42.070;24.752;2022-07-09T11:12:52;6.13;;;5.75;;
10947;SDS011;5526;42.070;24.752;2022-07-09T11:15:20;5.93;;;5.45;;
10947;SDS011;5526;42.070;24.752;2022-07-09T11:17:54;6.50;;;6.10;;
10947;SDS011;5526;42.070;24.752;2022-07-09T11:20:22;4.90;;;4.60;;
10947;SDS011;5526;42.070;24.752;2022-07-09T11:22:50;4.72;;;4.43;;
10947;SDS011;5526;42.070;24.752;2022-07-09T11:25:17;4.50;;;4.20;;
10947;SDS011;5526;42.070;24.752;2022-07-09T11:27:44;4.20;;;3.90;;
10947;SDS011;5526;42.070;24.752;2022-07-09T11:30:13;4.82;;;4.53;;
10947;SDS011;5526;42.070;24.752;2022-07-09T11:32:41;5.60;;;5.07;;
10947;SDS011;5526;42.070;24.752;2022-07-09T11:35:08;5.32;;;4.95;;
10947;SDS011;5526;42.070;24.752;2022-07-09T11:37:36;4.78;;;4.38;;
10947;SDS011;5526;42.070;24.752;2022-07-09T11:40:03;4.50;;;4.20;;
10947;SDS011;5526;42.070;24.752;2022-07-09T11:42:31;4.75;;;4.43;;
10947;SDS011;5526;42.070;24.752;2022-07-09T11:44:58;4.15;;;3.92;;
10947;SDS011;5526;42.070;24.752;2022-07-09T11:47:35;4.00;;;3.70;;
10947;SDS011;5526;42.070;24.752;2022-07-09T11:50:04;5.07;;;4.68;;
10947;SDS011;5526;42.070;24.752;2022-07-09T11:52:32;8.98;;;8.18;;
10947;SDS011;5526;42.070;24.752;2022-07-09T11:55:00;7.28;;;6.68;;
10947;SDS011;5526;42.070;24.752;2022-07-09T11:57:29;6.20;;;5.70;;
10947;SDS011;5526;42.070;24.752;2022-07-09T11:59:58;5.10;;;4.70;;
10947;SDS011;5526;42.070;24.752;2022-07-09T12:02:26;4.28;;;4.00;;
10947;SDS011;5526;42.070;24.752;2022-07-09T12:04:58;3.40;;;3.20;;
10947;SDS011;5526;42.070;24.752;2022-07-09T12:07:28;3.47;;;3.28;;
10947;SDS011;5526;42.070;24.752;2022-07-09T12:09:59;3.20;;;3.00;;
10947;SDS011;5526;42.070;24.752;2022-07-09T12:12:27;3.50;;;3.40;;
10947;SDS011;5526;42.070;24.752;2022-07-09T12:14:54;4.07;;;3.78;;
10947;SDS011;5526;42.070;24.752;2022-07-09T12:17:24;4.10;;;3.90;;
10947;SDS011;5526;42.070;24.752;2022-07-09T12:19:53;4.45;;;4.15;;
10947;SDS011;5526;42.070;24.752;2022-07-09T12:22:22;4.95;;;4.55;;
10947;SDS011;5526;42.070;24.752;2022-07-09T12:24:50;4.07;;;3.85;;
10947;SDS011;5526;42.070;24.752;2022-07-09T12:27:17;4.93;;;4.63;;
10947;SDS011;5526;42.070;24.752;2022-07-09T12:29:46;4.63;;;4.32;;
10947;SDS011;5526;42.070;24.752;2022-07-09T12:32:13;4.72;;;4.35;;
10947;SDS011;5526;42.070;24.752;2022-07-09T12:34:40;4.25;;;3.95;;
10947;SDS011;5526;42.070;24.752;2022-07-09T12:37:07;3.75;;;3.55;;
10947;SDS011;5526;42.070;24.752;2022-07-09T12:39:36;4.20;;;3.90;;
10947;SDS011;5526;42.070;24.752;2022-07-09T12:42:03;4.32;;;4.03;;
10947;SDS011;5526;42.070;24.752;2022-07-09T12:44:32;3.85;;;3.65;;
10947;SDS011;5526;42.070;24.752;2022-07-09T12:46:59;4.40;;;4.00;;
10947;SDS011;5526;42.070;24.752;2022-07-09T12:49:27;4.13;;;3.92;;
10947;SDS011;5526;42.070;24.752;2022-07-09T12:51:54;4.30;;;4.10;;
10947;SDS011;5526;42.070;24.752;2022-07-09T12:54:21;4.13;;;3.92;;
10947;SDS011;5526;42.070;24.752;2022-07-09T12:56:49;4.25;;;4.05;;
10947;SDS011;5526;42.070;24.752;2022-07-09T12:59:17;4.45;;;4.20;;
10947;SDS011;5526;42.070;24.752;2022-07-09T13:01:44;4.30;;;4.00;;
10947;SDS011;5526;42.070;24.752;2022-07-09T13:04:11;4.53;;;4.20;;
10947;SDS011;5526;42.070;24.752;2022-07-09T13:06:38;4.45;;;4.15;;
10947;SDS011;5526;42.070;24.752;2022-07-09T13:09:06;4.25;;;4.05;;
10947;SDS011;5526;42.070;24.752;2022-07-09T13:11:34;4.40;;;4.10;;
10947;SDS011;5526;42.070;24.752;2022-07-09T13:14:03;4.30;;;4.00;;
10947;SDS011;5526;42.070;24.752;2022-07-09T13:16:31;4.63;;;4.32;;
10947;SDS011;5526;42.070;24.752;2022-07-09T13:18:58;4.13;;;3.92;;
10947;SDS011;5526;42.070;24.752;2022-07-09T13:21:25;4.20;;;3.92;;
10947;SDS011;5526;42.070;24.752;2022-07-09T13:23:52;4.32;;;3.92;;
10947;SDS011;5526;42.070;24.752;2022-07-09T13:26:19;4.13;;;3.80;;
10947;SDS011;5526;42.070;24.752;2022-07-09T13:28:46;3.95;;;3.70;;
10947;SDS011;5526;42.070;24.752;2022-07-09T13:31:15;4.20;;;3.83;;
10947;SDS011;5526;42.070;24.752;2022-07-09T13:33:43;3.88;;;3.60;;
10947;SDS011;5526;42.070;24.752;2022-07-09T13:36:10;3.40;;;3.20;;
10947;SDS011;5526;42.070;24.752;2022-07-09T13:38:38;3.90;;;3.60;;
10947;SDS011;5526;42.070;24.752;2022-07-09T13:41:05;3.60;;;3.40;;
10947;SDS011;5526;42.070;24.752;2022-07-09T13:43:32;3.45;;;3.25;;
10947;SDS011;5526;42.070;24.752;2022-07-09T13:45:59;3.83;;;3.63;;
10947;SDS011;5526;42.070;24.752;2022-07-09T13:48:27;3.70;;;3.50;;
10947;SDS011;5526;42.070;24.752;2022-07-09T13:50:54;3.30;;;3.10;;
10947;SDS011;5526;42.070;24.752;2022-07-09T13:53:21;3.78;;;3.47;;
10947;SDS011;5526;42.070;24.752;2022-07-09T13:55:48;4.07;;;3.58;;
10947;SDS011;5526;42.070;24.752;2022-07-09T13:58:16;3.63;;;3.33;;
10947;SDS011;5526;42.070;24.752;2022-07-09T14:00:43;3.42;;;3.22;;
10947;SDS011;5526;42.070;24.752;2022-07-09T14:03:10;3.75;;;3.50;;
10947;SDS011;5526;42.070;24.752;2022-07-09T14:05:38;3.72;;;3.42;;
10947;SDS011;5526;42.070;24.752;2022-07-09T14:08:06;3.53;;;3.28;;
10947;SDS011;5526;42.070;24.752;2022-07-09T14:10:33;3.63;;;3.42;;
10947;SDS011;5526;42.070;24.752;2022-07-09T14:13:01;3.85;;;3.42;;
10947;SDS011;5526;42.070;24.752;2022-07-09T14:15:29;3.58;;;3.30;;
10947;SDS011;5526;42.070;24.752;2022-07-09T14:17:59;3.45;;;3.25;;
10947;SDS011;5526;42.070;24.752;2022-07-09T14:20:26;3.42;;;3.22;;
10947;SDS011;5526;42.070;24.752;2022-07-09T14:22:54;3.42;;;3.22;;
10947;SDS011;5526;42.070;24.752;2022-07-09T14:25:21;3.40;;;3.10;;
10947;SDS011;5526;42.070;24.752;2022-07-09T14:27:50;3.47;;;3.28;;
10947;SDS011;5526;42.070;24.752;2022-07-09T14:30:18;3.17;;;3.08;;
10947;SDS011;5526;42.070;24.752;2022-07-09T14:32:45;3.60;;;3.40;;
10947;SDS011;5526;42.070;24.752;2022-07-09T14:35:12;3.20;;;3.00;;
10947;SDS011;5526;42.070;24.752;2022-07-09T14:37:40;2.97;;;2.80;;
10947;SDS011;5526;42.070;24.752;2022-07-09T14:40:09;3.40;;;3.10;;
10947;SDS011;5526;42.070;24.752;2022-07-09T14:42:37;3.00;;;2.85;;
10947;SDS011;5526;42.070;24.752;2022-07-09T14:45:06;3.65;;;3.45;;
10947;SDS011;5526;42.070;24.752;2022-07-09T14:47:34;4.47;;;4.15;;
10947;SDS011;5526;42.070;24.752;2022-07-09T14:50:01;3.67;;;3.47;;